sensor_id;sensor_type;location;lat;lon;timestamp;temperature;humidity
21834;DHT22;11079;51.092;3.458;2023-12-29T00:02:23;10.30;99.90
21834;DHT22;11079;51.092;3.458;2023-12-29T00:04:49;10.20;99.90
21834;DHT22;11079;51.092;3.458;2023-12-29T00:07:15;10.20;99.90
21834;DHT22;11079;51.092;3.458;2023-12-29T00:09:41;10.20;99.90
21834;DHT22;11079;51.092;3.458;2023-12-29T00:12:07;10.10;99.90
21834;DHT22;11079;51.092;3.458;2023-12-29T00:14:36;10.10;99.90
21834;DHT22;11079;51.092;3.458;2023-12-29T00:17:03;10.10;99.90
21834;DHT22;11079;51.092;3.458;2023-12-29T00:19:29;10.10;99.90
21834;DHT22;11079;51.092;3.458;2023-12-29T00:21:55;10.10;99.90
21834;DHT22;11079;51.092;3.458;2023-12-29T00:24:21;10.20;99.90
21834;DHT22;11079;51.092;3.458;2023-12-29T00:26:46;10.20;99.90
21834;DHT22;11079;51.092;3.458;2023-12-29T00:29:16;10.20;99.90
21834;DHT22;11079;51.092;3.458;2023-12-29T00:31:43;10.20;99.90
21834;DHT22;11079;51.092;3.458;2023-12-29T00:34:09;10.20;99.90
21834;DHT22;11079;51.092;3.458;2023-12-29T00:36:34;10.10;99.90
21834;DHT22;11079;51.092;3.458;2023-12-29T00:39:00;10.10;99.90
21834;DHT22;11079;51.092;3.458;2023-12-29T00:41:27;10.00;99.90
21834;DHT22;11079;51.092;3.458;2023-12-29T00:43:54;10.00;99.90
21834;DHT22;11079;51.092;3.458;2023-12-29T00:46:21;10.20;99.90
21834;DHT22;11079;51.092;3.458;2023-12-29T00:48:49;10.10;99.90
21834;DHT22;11079;51.092;3.458;2023-12-29T00:51:15;10.20;99.90
21834;DHT22;11079;51.092;3.458;2023-12-29T00:53:41;10.20;99.90
21834;DHT22;11079;51.092;3.458;2023-12-29T00:56:10;10.20;99.90
21834;DHT22;11079;51.092;3.458;2023-12-29T00:58:36;10.20;99.90
21834;DHT22;11079;51.092;3.458;2023-12-29T01:01:02;10.30;99.90
21834;DHT22;11079;51.092;3.458;2023-12-29T01:03:30;10.20;99.90
21834;DHT22;11079;51.092;3.458;2023-12-29T01:05:56;10.30;99.90
21834;DHT22;11079;51.092;3.458;2023-12-29T01:08:22;10.30;99.90
21834;DHT22;11079;51.092;3.458;2023-12-29T01:10:47;10.30;99.90
21834;DHT22;11079;51.092;3.458;2023-12-29T01:13:13;10.40;99.90
21834;DHT22;11079;51.092;3.458;2023-12-29T01:15:39;10.40;99.90
21834;DHT22;11079;51.092;3.458;2023-12-29T01:18:06;10.30;99.90
21834;DHT22;11079;51.092;3.458;2023-12-29T01:20:32;10.40;99.90
21834;DHT22;11079;51.092;3.458;2023-12-29T01:22:58;10.50;99.90
21834;DHT22;11079;51.092;3.458;2023-12-29T01:25:24;10.50;99.90
21834;DHT22;11079;51.092;3.458;2023-12-29T01:27:50;10.40;99.90
21834;DHT22;11079;51.092;3.458;2023-12-29T01:30:16;10.50;99.90
21834;DHT22;11079;51.092;3.458;2023-12-29T01:32:41;10.40;99.90
21834;DHT22;11079;51.092;3.458;2023-12-29T01:35:10;10.30;99.90
21834;DHT22;11079;51.092;3.458;2023-12-29T01:37:37;10.40;99.90
21834;DHT22;11079;51.092;3.458;2023-12-29T01:40:03;10.30;99.90
21834;DHT22;11079;51.092;3.458;2023-12-29T01:42:29;10.40;99.90
21834;DHT22;11079;51.092;3.458;2023-12-29T01:44:55;10.40;99.90
21834;DHT22;11079;51.092;3.458;2023-12-29T01:47:22;10.40;99.90
21834;DHT22;11079;51.092;3.458;2023-12-29T01:49:48;10.50;99.90
21834;DHT22;11079;51.092;3.458;2023-12-29T01:52:16;10.40;99.90
21834;DHT22;11079;51.092;3.458;2023-12-29T01:54:43;10.30;99.90
21834;DHT22;11079;51.092;3.458;2023-12-29T01:57:11;10.40;99.90
21834;DHT22;11079;51.092;3.458;2023-12-29T01:59:37;10.50;99.90
21834;DHT22;11079;51.092;3.458;2023-12-29T02:02:06;10.50;99.90
21834;DHT22;11079;51.092;3.458;2023-12-29T02:04:32;10.50;99.90
21834;DHT22;11079;51.092;3.458;2023-12-29T02:06:58;10.50;99.90
21834;DHT22;11079;51.092;3.458;2023-12-29T02:09:24;10.50;99.90
21834;DHT22;11079;51.092;3.458;2023-12-29T02:11:50;10.40;99.90
21834;DHT22;11079;51.092;3.458;2023-12-29T02:14:17;10.40;99.90
21834;DHT22;11079;51.092;3.458;2023-12-29T02:17:15;10.40;99.90
21834;DHT22;11079;51.092;3.458;2023-12-29T02:19:58;10.50;99.90
21834;DHT22;11079;51.092;3.458;2023-12-29T02:22:48;10.50;99.90
21834;DHT22;11079;51.092;3.458;2023-12-29T02:25:15;10.50;99.90
21834;DHT22;11079;51.092;3.458;2023-12-29T02:30:46;10.60;99.90
21834;DHT22;11079;51.092;3.458;2023-12-29T02:33:28;10.70;99.90
21834;DHT22;11079;51.092;3.458;2023-12-29T02:36:08;10.70;99.90
21834;DHT22;11079;51.092;3.458;2023-12-29T02:38:35;10.70;99.90
21834;DHT22;11079;51.092;3.458;2023-12-29T02:41:06;10.60;99.90
21834;DHT22;11079;51.092;3.458;2023-12-29T02:43:35;10.70;99.90
21834;DHT22;11079;51.092;3.458;2023-12-29T02:46:01;10.70;99.90
21834;DHT22;11079;51.092;3.458;2023-12-29T02:48:28;10.80;99.90
21834;DHT22;11079;51.092;3.458;2023-12-29T02:50:54;10.80;99.90
21834;DHT22;11079;51.092;3.458;2023-12-29T02:53:22;10.90;99.90
21834;DHT22;11079;51.092;3.458;2023-12-29T02:55:47;10.90;99.90
21834;DHT22;11079;51.092;3.458;2023-12-29T02:58:15;11.00;99.90
21834;DHT22;11079;51.092;3.458;2023-12-29T03:00:46;10.90;99.90
21834;DHT22;11079;51.092;3.458;2023-12-29T03:03:13;10.90;99.90
21834;DHT22;11079;51.092;3.458;2023-12-29T03:05:41;11.00;99.90
21834;DHT22;11079;51.092;3.458;2023-12-29T03:08:21;10.90;99.90
21834;DHT22;11079;51.092;3.458;2023-12-29T03:10:48;11.00;99.90
21834;DHT22;11079;51.092;3.458;2023-12-29T03:13:20;11.00;99.90
21834;DHT22;11079;51.092;3.458;2023-12-29T03:15:46;11.00;99.90
21834;DHT22;11079;51.092;3.458;2023-12-29T03:18:12;11.00;99.90
21834;DHT22;11079;51.092;3.458;2023-12-29T03:20:37;11.00;99.90
21834;DHT22;11079;51.092;3.458;2023-12-29T03:23:03;11.00;99.90
21834;DHT22;11079;51.092;3.458;2023-12-29T03:25:29;11.00;99.90
21834;DHT22;11079;51.092;3.458;2023-12-29T03:27:54;11.00;99.90
21834;DHT22;11079;51.092;3.458;2023-12-29T03:30:20;10.90;99.90
21834;DHT22;11079;51.092;3.458;2023-12-29T03:32:46;10.80;99.90
21834;DHT22;11079;51.092;3.458;2023-12-29T03:35:14;10.90;99.90
21834;DHT22;11079;51.092;3.458;2023-12-29T03:37:43;11.00;99.90
21834;DHT22;11079;51.092;3.458;2023-12-29T03:40:09;11.00;99.90
21834;DHT22;11079;51.092;3.458;2023-12-29T03:42:37;11.00;99.90
21834;DHT22;11079;51.092;3.458;2023-12-29T03:45:06;11.00;99.90
21834;DHT22;11079;51.092;3.458;2023-12-29T03:47:32;11.00;99.90
21834;DHT22;11079;51.092;3.458;2023-12-29T03:49:58;11.00;99.90
21834;DHT22;11079;51.092;3.458;2023-12-29T03:52:24;10.90;99.90
21834;DHT22;11079;51.092;3.458;2023-12-29T03:54:49;10.90;99.90
21834;DHT22;11079;51.092;3.458;2023-12-29T03:57:15;10.80;99.90
21834;DHT22;11079;51.092;3.458;2023-12-29T03:59:41;10.90;99.90
21834;DHT22;11079;51.092;3.458;2023-12-29T04:02:06;10.80;99.90
21834;DHT22;11079;51.092;3.458;2023-12-29T04:04:34;10.80;99.90
21834;DHT22;11079;51.092;3.458;2023-12-29T04:07:01;10.80;99.90
21834;DHT22;11079;51.092;3.458;2023-12-29T04:09:28;10.80;99.90
21834;DHT22;11079;51.092;3.458;2023-12-29T04:11:54;10.80;99.90
21834;DHT22;11079;51.092;3.458;2023-12-29T04:14:19;10.80;99.90
21834;DHT22;11079;51.092;3.458;2023-12-29T04:16:45;10.80;99.90
21834;DHT22;11079;51.092;3.458;2023-12-29T04:19:11;10.90;99.90
21834;DHT22;11079;51.092;3.458;2023-12-29T04:21:36;11.00;99.90
21834;DHT22;11079;51.092;3.458;2023-12-29T04:24:03;11.00;99.90
21834;DHT22;11079;51.092;3.458;2023-12-29T04:26:29;10.90;99.90
21834;DHT22;11079;51.092;3.458;2023-12-29T04:28:55;11.00;99.90
21834;DHT22;11079;51.092;3.458;2023-12-29T04:31:20;11.00;99.90
21834;DHT22;11079;51.092;3.458;2023-12-29T04:33:46;11.10;99.90
21834;DHT22;11079;51.092;3.458;2023-12-29T04:36:12;11.10;99.90
21834;DHT22;11079;51.092;3.458;2023-12-29T04:38:39;11.10;99.90
21834;DHT22;11079;51.092;3.458;2023-12-29T04:41:05;11.20;99.90
21834;DHT22;11079;51.092;3.458;2023-12-29T04:43:30;11.20;99.90
21834;DHT22;11079;51.092;3.458;2023-12-29T04:45:56;11.20;99.90
21834;DHT22;11079;51.092;3.458;2023-12-29T04:48:22;11.20;99.90
21834;DHT22;11079;51.092;3.458;2023-12-29T04:50:48;11.20;99.90
21834;DHT22;11079;51.092;3.458;2023-12-29T04:53:14;11.20;99.90
21834;DHT22;11079;51.092;3.458;2023-12-29T04:55:39;11.20;99.90
21834;DHT22;11079;51.092;3.458;2023-12-29T04:58:11;11.30;99.90
21834;DHT22;11079;51.092;3.458;2023-12-29T05:00:36;11.20;99.90
21834;DHT22;11079;51.092;3.458;2023-12-29T05:03:03;11.20;99.90
21834;DHT22;11079;51.092;3.458;2023-12-29T05:05:29;11.10;99.90
21834;DHT22;11079;51.092;3.458;2023-12-29T05:07:55;11.00;99.90
21834;DHT22;11079;51.092;3.458;2023-12-29T05:14:13;10.90;99.90
21834;DHT22;11079;51.092;3.458;2023-12-29T05:17:10;10.80;99.90
21834;DHT22;11079;51.092;3.458;2023-12-29T05:19:37;10.70;99.90
21834;DHT22;11079;51.092;3.458;2023-12-29T05:22:17;10.50;99.90
21834;DHT22;11079;51.092;3.458;2023-12-29T05:24:43;10.50;99.90
21834;DHT22;11079;51.092;3.458;2023-12-29T05:27:10;10.50;99.90
21834;DHT22;11079;51.092;3.458;2023-12-29T05:29:42;10.50;99.90
21834;DHT22;11079;51.092;3.458;2023-12-29T05:32:11;10.50;99.90
21834;DHT22;11079;51.092;3.458;2023-12-29T05:34:42;10.50;99.90
21834;DHT22;11079;51.092;3.458;2023-12-29T05:37:10;10.40;99.90
21834;DHT22;11079;51.092;3.458;2023-12-29T05:39:36;10.50;99.90
21834;DHT22;11079;51.092;3.458;2023-12-29T05:42:05;10.50;99.90
21834;DHT22;11079;51.092;3.458;2023-12-29T05:44:31;10.50;99.90
21834;DHT22;11079;51.092;3.458;2023-12-29T05:46:58;10.40;99.90
21834;DHT22;11079;51.092;3.458;2023-12-29T05:49:27;10.60;99.90
21834;DHT22;11079;51.092;3.458;2023-12-29T05:51:52;10.60;99.90
21834;DHT22;11079;51.092;3.458;2023-12-29T05:54:18;10.50;99.90
21834;DHT22;11079;51.092;3.458;2023-12-29T05:56:44;10.50;99.90
21834;DHT22;11079;51.092;3.458;2023-12-29T05:59:10;10.60;99.90
21834;DHT22;11079;51.092;3.458;2023-12-29T06:01:35;10.50;99.90
21834;DHT22;11079;51.092;3.458;2023-12-29T06:04:02;10.50;99.90
21834;DHT22;11079;51.092;3.458;2023-12-29T06:06:27;10.50;99.90
21834;DHT22;11079;51.092;3.458;2023-12-29T06:08:54;10.50;99.90
21834;DHT22;11079;51.092;3.458;2023-12-29T06:11:20;10.50;99.90
21834;DHT22;11079;51.092;3.458;2023-12-29T06:13:46;10.50;99.90
21834;DHT22;11079;51.092;3.458;2023-12-29T06:16:19;10.60;99.90
21834;DHT22;11079;51.092;3.458;2023-12-29T06:18:45;10.60;99.90
21834;DHT22;11079;51.092;3.458;2023-12-29T06:21:11;10.50;99.90
21834;DHT22;11079;51.092;3.458;2023-12-29T06:23:37;10.60;99.90
21834;DHT22;11079;51.092;3.458;2023-12-29T06:26:03;10.60;99.90
21834;DHT22;11079;51.092;3.458;2023-12-29T06:28:28;10.50;99.90
21834;DHT22;11079;51.092;3.458;2023-12-29T06:30:54;10.60;99.90
21834;DHT22;11079;51.092;3.458;2023-12-29T06:33:20;10.60;99.90
21834;DHT22;11079;51.092;3.458;2023-12-29T06:35:48;10.60;99.90
21834;DHT22;11079;51.092;3.458;2023-12-29T06:38:14;10.60;99.90
21834;DHT22;11079;51.092;3.458;2023-12-29T06:40:40;10.50;99.90
21834;DHT22;11079;51.092;3.458;2023-12-29T06:43:06;10.40;99.90
21834;DHT22;11079;51.092;3.458;2023-12-29T06:45:31;10.40;99.90
21834;DHT22;11079;51.092;3.458;2023-12-29T06:47:57;10.40;99.90
21834;DHT22;11079;51.092;3.458;2023-12-29T06:50:23;10.40;99.90
21834;DHT22;11079;51.092;3.458;2023-12-29T06:52:48;10.40;99.90
21834;DHT22;11079;51.092;3.458;2023-12-29T06:55:14;10.30;99.90
21834;DHT22;11079;51.092;3.458;2023-12-29T06:57:40;10.40;99.90
21834;DHT22;11079;51.092;3.458;2023-12-29T07:00:06;10.40;99.90
21834;DHT22;11079;51.092;3.458;2023-12-29T07:02:32;10.40;99.90
21834;DHT22;11079;51.092;3.458;2023-12-29T07:04:58;10.40;99.90
21834;DHT22;11079;51.092;3.458;2023-12-29T07:07:24;10.50;99.90
21834;DHT22;11079;51.092;3.458;2023-12-29T07:09:49;10.50;99.90
21834;DHT22;11079;51.092;3.458;2023-12-29T07:12:15;10.50;99.90
21834;DHT22;11079;51.092;3.458;2023-12-29T07:14:41;10.50;99.90
21834;DHT22;11079;51.092;3.458;2023-12-29T07:17:07;10.40;99.90
21834;DHT22;11079;51.092;3.458;2023-12-29T07:19:34;10.40;99.90
21834;DHT22;11079;51.092;3.458;2023-12-29T07:22:03;10.40;99.90
21834;DHT22;11079;51.092;3.458;2023-12-29T07:24:30;10.40;99.90
21834;DHT22;11079;51.092;3.458;2023-12-29T07:26:56;10.40;99.90
21834;DHT22;11079;51.092;3.458;2023-12-29T07:29:22;10.50;99.90
21834;DHT22;11079;51.092;3.458;2023-12-29T07:31:48;10.50;99.90
21834;DHT22;11079;51.092;3.458;2023-12-29T07:34:14;10.40;99.90
21834;DHT22;11079;51.092;3.458;2023-12-29T07:36:40;10.30;99.90
21834;DHT22;11079;51.092;3.458;2023-12-29T07:39:06;10.30;99.90
21834;DHT22;11079;51.092;3.458;2023-12-29T07:41:32;10.40;99.90
21834;DHT22;11079;51.092;3.458;2023-12-29T07:43:58;10.30;99.90
21834;DHT22;11079;51.092;3.458;2023-12-29T07:46:29;10.30;99.90
21834;DHT22;11079;51.092;3.458;2023-12-29T07:48:55;10.20;99.90
21834;DHT22;11079;51.092;3.458;2023-12-29T07:51:21;10.20;99.90
21834;DHT22;11079;51.092;3.458;2023-12-29T07:53:50;10.20;99.90
21834;DHT22;11079;51.092;3.458;2023-12-29T07:56:15;10.30;99.90
21834;DHT22;11079;51.092;3.458;2023-12-29T07:58:41;10.30;99.90
21834;DHT22;11079;51.092;3.458;2023-12-29T08:01:07;10.30;99.90
21834;DHT22;11079;51.092;3.458;2023-12-29T08:03:32;10.20;99.90
21834;DHT22;11079;51.092;3.458;2023-12-29T08:05:58;10.30;99.90
21834;DHT22;11079;51.092;3.458;2023-12-29T08:08:24;10.30;99.90
21834;DHT22;11079;51.092;3.458;2023-12-29T08:10:49;10.30;99.90
21834;DHT22;11079;51.092;3.458;2023-12-29T08:13:15;10.30;99.90
21834;DHT22;11079;51.092;3.458;2023-12-29T08:15:42;10.30;99.90
21834;DHT22;11079;51.092;3.458;2023-12-29T08:18:08;10.20;99.90
21834;DHT22;11079;51.092;3.458;2023-12-29T08:20:34;10.30;99.90
21834;DHT22;11079;51.092;3.458;2023-12-29T08:23:02;10.30;99.90
21834;DHT22;11079;51.092;3.458;2023-12-29T08:25:29;10.30;99.90
21834;DHT22;11079;51.092;3.458;2023-12-29T08:27:55;10.40;99.90
21834;DHT22;11079;51.092;3.458;2023-12-29T08:30:21;10.40;99.90
21834;DHT22;11079;51.092;3.458;2023-12-29T08:32:47;10.40;99.90
21834;DHT22;11079;51.092;3.458;2023-12-29T08:35:13;10.50;99.90
21834;DHT22;11079;51.092;3.458;2023-12-29T08:37:39;10.60;99.90
21834;DHT22;11079;51.092;3.458;2023-12-29T08:40:05;10.40;99.90
21834;DHT22;11079;51.092;3.458;2023-12-29T08:42:32;10.60;99.90
21834;DHT22;11079;51.092;3.458;2023-12-29T08:44:58;10.60;99.90
21834;DHT22;11079;51.092;3.458;2023-12-29T08:47:24;10.60;99.90
21834;DHT22;11079;51.092;3.458;2023-12-29T08:49:50;10.60;99.90
21834;DHT22;11079;51.092;3.458;2023-12-29T08:52:16;10.70;99.90
21834;DHT22;11079;51.092;3.458;2023-12-29T08:54:42;10.70;99.90
21834;DHT22;11079;51.092;3.458;2023-12-29T08:57:08;10.70;99.90
21834;DHT22;11079;51.092;3.458;2023-12-29T08:59:46;10.80;99.90
21834;DHT22;11079;51.092;3.458;2023-12-29T09:02:11;10.90;99.90
21834;DHT22;11079;51.092;3.458;2023-12-29T09:04:37;11.00;99.90
21834;DHT22;11079;51.092;3.458;2023-12-29T09:07:03;11.10;99.90
21834;DHT22;11079;51.092;3.458;2023-12-29T09:09:31;11.20;99.90
21834;DHT22;11079;51.092;3.458;2023-12-29T09:11:56;11.20;99.90
21834;DHT22;11079;51.092;3.458;2023-12-29T09:14:22;11.20;99.90
21834;DHT22;11079;51.092;3.458;2023-12-29T09:16:48;11.30;99.90
21834;DHT22;11079;51.092;3.458;2023-12-29T09:19:13;11.30;99.90
21834;DHT22;11079;51.092;3.458;2023-12-29T09:21:42;11.30;99.90
21834;DHT22;11079;51.092;3.458;2023-12-29T09:24:08;11.30;99.90
21834;DHT22;11079;51.092;3.458;2023-12-29T09:26:34;11.30;99.90
21834;DHT22;11079;51.092;3.458;2023-12-29T09:29:00;11.50;99.90
21834;DHT22;11079;51.092;3.458;2023-12-29T09:31:32;11.50;99.90
21834;DHT22;11079;51.092;3.458;2023-12-29T09:33:58;11.70;99.90
21834;DHT22;11079;51.092;3.458;2023-12-29T09:36:23;11.60;99.90
21834;DHT22;11079;51.092;3.458;2023-12-29T09:38:49;11.50;99.90
21834;DHT22;11079;51.092;3.458;2023-12-29T09:41:20;11.50;99.90
21834;DHT22;11079;51.092;3.458;2023-12-29T09:43:56;11.50;99.90
21834;DHT22;11079;51.092;3.458;2023-12-29T09:46:32;11.50;99.90
21834;DHT22;11079;51.092;3.458;2023-12-29T09:49:00;11.30;99.90
21834;DHT22;11079;51.092;3.458;2023-12-29T09:51:27;11.50;99.90
21834;DHT22;11079;51.092;3.458;2023-12-29T09:53:54;11.50;99.90
21834;DHT22;11079;51.092;3.458;2023-12-29T09:56:20;11.50;99.90
21834;DHT22;11079;51.092;3.458;2023-12-29T09:58:51;11.50;99.90
21834;DHT22;11079;51.092;3.458;2023-12-29T10:01:21;11.60;99.90
21834;DHT22;11079;51.092;3.458;2023-12-29T10:03:48;11.60;99.90
21834;DHT22;11079;51.092;3.458;2023-12-29T10:06:23;11.60;99.90
21834;DHT22;11079;51.092;3.458;2023-12-29T10:08:51;11.70;99.90
21834;DHT22;11079;51.092;3.458;2023-12-29T10:11:21;11.60;99.90
21834;DHT22;11079;51.092;3.458;2023-12-29T10:13:50;11.70;99.90
21834;DHT22;11079;51.092;3.458;2023-12-29T10:16:38;11.80;99.90
21834;DHT22;11079;51.092;3.458;2023-12-29T10:22:03;11.80;99.90
21834;DHT22;11079;51.092;3.458;2023-12-29T10:24:34;11.90;99.90
21834;DHT22;11079;51.092;3.458;2023-12-29T10:27:00;12.00;99.90
21834;DHT22;11079;51.092;3.458;2023-12-29T10:29:27;11.80;99.90
21834;DHT22;11079;51.092;3.458;2023-12-29T10:31:53;11.70;99.90
21834;DHT22;11079;51.092;3.458;2023-12-29T10:34:31;11.70;99.90
21834;DHT22;11079;51.092;3.458;2023-12-29T10:37:08;11.60;99.90
21834;DHT22;11079;51.092;3.458;2023-12-29T10:39:40;11.60;99.90
21834;DHT22;11079;51.092;3.458;2023-12-29T10:42:22;11.50;99.90
21834;DHT22;11079;51.092;3.458;2023-12-29T10:45:05;11.50;99.90
21834;DHT22;11079;51.092;3.458;2023-12-29T10:47:31;11.40;99.90
21834;DHT22;11079;51.092;3.458;2023-12-29T10:50:02;11.40;99.90
21834;DHT22;11079;51.092;3.458;2023-12-29T10:52:32;11.40;99.90
21834;DHT22;11079;51.092;3.458;2023-12-29T10:55:09;11.40;99.90
21834;DHT22;11079;51.092;3.458;2023-12-29T10:57:36;11.50;99.90
21834;DHT22;11079;51.092;3.458;2023-12-29T11:00:02;11.50;99.90
21834;DHT22;11079;51.092;3.458;2023-12-29T11:02:29;11.50;99.90
21834;DHT22;11079;51.092;3.458;2023-12-29T11:05:02;11.60;99.90
21834;DHT22;11079;51.092;3.458;2023-12-29T11:07:37;11.60;99.90
21834;DHT22;11079;51.092;3.458;2023-12-29T11:10:04;11.60;99.90
21834;DHT22;11079;51.092;3.458;2023-12-29T11:12:32;11.60;99.90
21834;DHT22;11079;51.092;3.458;2023-12-29T11:15:03;11.70;99.90
21834;DHT22;11079;51.092;3.458;2023-12-29T11:17:30;11.70;99.90
21834;DHT22;11079;51.092;3.458;2023-12-29T11:20:00;11.70;99.90
21834;DHT22;11079;51.092;3.458;2023-12-29T11:22:30;11.80;99.90
21834;DHT22;11079;51.092;3.458;2023-12-29T11:25:00;11.80;99.90
21834;DHT22;11079;51.092;3.458;2023-12-29T11:27:27;11.80;99.90
21834;DHT22;11079;51.092;3.458;2023-12-29T11:29:58;11.90;99.90
21834;DHT22;11079;51.092;3.458;2023-12-29T11:32:39;11.90;99.90
21834;DHT22;11079;51.092;3.458;2023-12-29T11:35:27;12.00;99.90
21834;DHT22;11079;51.092;3.458;2023-12-29T11:40:54;12.10;99.90
21834;DHT22;11079;51.092;3.458;2023-12-29T11:43:25;12.10;99.90
21834;DHT22;11079;51.092;3.458;2023-12-29T11:45:51;12.20;99.90
21834;DHT22;11079;51.092;3.458;2023-12-29T11:48:55;12.30;99.90
21834;DHT22;11079;51.092;3.458;2023-12-29T11:51:43;12.30;99.90
21834;DHT22;11079;51.092;3.458;2023-12-29T11:54:09;12.30;99.90
21834;DHT22;11079;51.092;3.458;2023-12-29T11:56:37;12.30;99.90
21834;DHT22;11079;51.092;3.458;2023-12-29T11:59:17;12.40;99.90
21834;DHT22;11079;51.092;3.458;2023-12-29T12:01:48;12.40;99.90
21834;DHT22;11079;51.092;3.458;2023-12-29T12:04:36;12.30;99.90
21834;DHT22;11079;51.092;3.458;2023-12-29T12:07:04;12.30;99.90
21834;DHT22;11079;51.092;3.458;2023-12-29T12:09:30;12.40;99.90
21834;DHT22;11079;51.092;3.458;2023-12-29T12:11:56;12.30;99.90
21834;DHT22;11079;51.092;3.458;2023-12-29T12:14:47;12.10;99.90
21834;DHT22;11079;51.092;3.458;2023-12-29T12:17:33;12.00;99.90
21834;DHT22;11079;51.092;3.458;2023-12-29T12:20:08;12.10;99.90
21834;DHT22;11079;51.092;3.458;2023-12-29T12:22:37;12.30;99.90
21834;DHT22;11079;51.092;3.458;2023-12-29T12:25:03;12.40;99.90
21834;DHT22;11079;51.092;3.458;2023-12-29T12:27:30;12.60;99.90
21834;DHT22;11079;51.092;3.458;2023-12-29T12:29:58;12.60;99.90
21834;DHT22;11079;51.092;3.458;2023-12-29T12:32:29;12.70;99.90
21834;DHT22;11079;51.092;3.458;2023-12-29T12:34:59;12.70;99.90
21834;DHT22;11079;51.092;3.458;2023-12-29T12:37:29;12.70;99.90
21834;DHT22;11079;51.092;3.458;2023-12-29T12:39:55;12.70;99.90
21834;DHT22;11079;51.092;3.458;2023-12-29T12:42:21;12.70;99.90
21834;DHT22;11079;51.092;3.458;2023-12-29T12:45:35;12.70;99.90
21834;DHT22;11079;51.092;3.458;2023-12-29T12:47:44;12.80;99.90
21834;DHT22;11079;51.092;3.458;2023-12-29T12:50:12;12.90;99.90
21834;DHT22;11079;51.092;3.458;2023-12-29T12:52:38;12.90;99.90
21834;DHT22;11079;51.092;3.458;2023-12-29T12:55:06;12.80;99.90
21834;DHT22;11079;51.092;3.458;2023-12-29T12:57:33;12.80;99.90
21834;DHT22;11079;51.092;3.458;2023-12-29T13:00:00;12.70;99.90
21834;DHT22;11079;51.092;3.458;2023-12-29T13:02:26;12.60;99.90
21834;DHT22;11079;51.092;3.458;2023-12-29T13:04:52;12.50;99.90
21834;DHT22;11079;51.092;3.458;2023-12-29T13:07:19;12.50;99.90
21834;DHT22;11079;51.092;3.458;2023-12-29T13:09:47;12.70;99.90
21834;DHT22;11079;51.092;3.458;2023-12-29T13:12:16;12.60;99.90
21834;DHT22;11079;51.092;3.458;2023-12-29T13:14:42;12.70;99.90
21834;DHT22;11079;51.092;3.458;2023-12-29T13:17:10;12.70;99.90
21834;DHT22;11079;51.092;3.458;2023-12-29T13:19:37;12.90;99.90
21834;DHT22;11079;51.092;3.458;2023-12-29T13:22:07;12.70;99.90
21834;DHT22;11079;51.092;3.458;2023-12-29T13:24:34;12.70;99.90
21834;DHT22;11079;51.092;3.458;2023-12-29T13:27:06;12.70;99.90
21834;DHT22;11079;51.092;3.458;2023-12-29T13:29:33;12.70;99.90
21834;DHT22;11079;51.092;3.458;2023-12-29T13:32:24;12.70;99.90
21834;DHT22;11079;51.092;3.458;2023-12-29T13:37:49;12.80;99.90
21834;DHT22;11079;51.092;3.458;2023-12-29T13:40:41;12.90;99.90
21834;DHT22;11079;51.092;3.458;2023-12-29T13:43:10;12.70;99.90
21834;DHT22;11079;51.092;3.458;2023-12-29T13:45:39;12.70;99.90
21834;DHT22;11079;51.092;3.458;2023-12-29T13:48:07;12.60;99.90
21834;DHT22;11079;51.092;3.458;2023-12-29T13:50:34;12.50;99.90
21834;DHT22;11079;51.092;3.458;2023-12-29T13:53:00;12.40;99.90
21834;DHT22;11079;51.092;3.458;2023-12-29T13:55:25;12.40;99.90
21834;DHT22;11079;51.092;3.458;2023-12-29T13:57:53;12.40;99.90
21834;DHT22;11079;51.092;3.458;2023-12-29T14:00:23;12.30;99.90
21834;DHT22;11079;51.092;3.458;2023-12-29T14:05:52;12.50;99.90
21834;DHT22;11079;51.092;3.458;2023-12-29T14:10:51;12.30;99.90
21834;DHT22;11079;51.092;3.458;2023-12-29T14:13:17;12.40;99.90
21834;DHT22;11079;51.092;3.458;2023-12-29T14:15:44;12.40;99.90
21834;DHT22;11079;51.092;3.458;2023-12-29T14:21:00;12.10;99.90
21834;DHT22;11079;51.092;3.458;2023-12-29T14:23:26;12.10;99.90
21834;DHT22;11079;51.092;3.458;2023-12-29T14:25:51;11.90;99.90
21834;DHT22;11079;51.092;3.458;2023-12-29T14:28:18;11.80;99.90
21834;DHT22;11079;51.092;3.458;2023-12-29T14:30:45;11.70;99.90
21834;DHT22;11079;51.092;3.458;2023-12-29T14:33:11;11.50;99.90
21834;DHT22;11079;51.092;3.458;2023-12-29T14:35:37;11.50;99.90
21834;DHT22;11079;51.092;3.458;2023-12-29T14:38:03;11.50;99.90
21834;DHT22;11079;51.092;3.458;2023-12-29T14:40:29;11.50;99.90
21834;DHT22;11079;51.092;3.458;2023-12-29T14:42:55;11.50;99.90
21834;DHT22;11079;51.092;3.458;2023-12-29T14:45:22;11.50;99.90
21834;DHT22;11079;51.092;3.458;2023-12-29T14:47:48;11.50;99.90
21834;DHT22;11079;51.092;3.458;2023-12-29T14:50:15;11.50;99.90
21834;DHT22;11079;51.092;3.458;2023-12-29T14:52:41;11.50;99.90
21834;DHT22;11079;51.092;3.458;2023-12-29T14:55:07;11.50;99.90
21834;DHT22;11079;51.092;3.458;2023-12-29T14:57:32;11.50;99.90
21834;DHT22;11079;51.092;3.458;2023-12-29T14:59:58;11.60;99.90
21834;DHT22;11079;51.092;3.458;2023-12-29T15:02:23;11.60;99.90
21834;DHT22;11079;51.092;3.458;2023-12-29T15:04:49;11.60;99.90
21834;DHT22;11079;51.092;3.458;2023-12-29T15:07:16;11.70;99.90
21834;DHT22;11079;51.092;3.458;2023-12-29T15:09:42;11.70;99.90
21834;DHT22;11079;51.092;3.458;2023-12-29T15:12:08;11.80;99.90
21834;DHT22;11079;51.092;3.458;2023-12-29T15:14:34;11.60;99.90
21834;DHT22;11079;51.092;3.458;2023-12-29T15:16:59;11.60;99.90
21834;DHT22;11079;51.092;3.458;2023-12-29T15:19:25;11.50;99.90
21834;DHT22;11079;51.092;3.458;2023-12-29T15:21:50;11.40;99.90
21834;DHT22;11079;51.092;3.458;2023-12-29T15:24:19;11.30;99.90
21834;DHT22;11079;51.092;3.458;2023-12-29T15:26:46;11.30;99.90
21834;DHT22;11079;51.092;3.458;2023-12-29T15:29:11;11.10;99.90
21834;DHT22;11079;51.092;3.458;2023-12-29T15:31:37;11.10;99.90
21834;DHT22;11079;51.092;3.458;2023-12-29T15:34:02;11.10;99.90
21834;DHT22;11079;51.092;3.458;2023-12-29T15:36:30;11.10;99.90
21834;DHT22;11079;51.092;3.458;2023-12-29T15:38:56;11.10;99.90
21834;DHT22;11079;51.092;3.458;2023-12-29T15:41:23;11.10;99.90
21834;DHT22;11079;51.092;3.458;2023-12-29T15:43:49;11.20;99.90
21834;DHT22;11079;51.092;3.458;2023-12-29T15:46:18;11.10;99.90
21834;DHT22;11079;51.092;3.458;2023-12-29T15:48:47;11.10;99.90
21834;DHT22;11079;51.092;3.458;2023-12-29T15:51:13;11.00;99.90
21834;DHT22;11079;51.092;3.458;2023-12-29T15:53:39;11.10;99.90
21834;DHT22;11079;51.092;3.458;2023-12-29T15:56:06;11.10;99.90
21834;DHT22;11079;51.092;3.458;2023-12-29T15:58:31;11.20;99.90
21834;DHT22;11079;51.092;3.458;2023-12-29T16:00:58;11.20;99.90